sensor_id;sensor_type;location;lat;lon;timestamp;P1;durP1;ratioP1;P2;durP2;ratioP2
77430;SDS011;66498;48.564;19.272;2023-11-21T00:00:10;5.53;;;3.75;;
77430;SDS011;66498;48.564;19.272;2023-11-21T00:02:37;6.10;;;4.13;;
77430;SDS011;66498;48.564;19.272;2023-11-21T00:05:05;5.38;;;4.45;;
77430;SDS011;66498;48.564;19.272;2023-11-21T00:07:34;7.55;;;4.50;;
77430;SDS011;66498;48.564;19.272;2023-11-21T00:10:00;8.55;;;5.07;;
77430;SDS011;66498;48.564;19.272;2023-11-21T00:12:26;8.35;;;5.40;;
77430;SDS011;66498;48.564;19.272;2023-11-21T00:14:52;10.45;;;6.90;;
77430;SDS011;66498;48.564;19.272;2023-11-21T00:17:18;9.43;;;6.95;;
77430;SDS011;66498;48.564;19.272;2023-11-21T00:19:44;8.57;;;5.90;;
77430;SDS011;66498;48.564;19.272;2023-11-21T00:22:09;9.75;;;5.95;;
77430;SDS011;66498;48.564;19.272;2023-11-21T00:24:35;7.22;;;5.35;;
77430;SDS011;66498;48.564;19.272;2023-11-21T00:27:00;13.60;;;7.43;;
77430;SDS011;66498;48.564;19.272;2023-11-21T00:29:25;13.68;;;8.75;;
77430;SDS011;66498;48.564;19.272;2023-11-21T00:31:51;10.65;;;5.95;;
77430;SDS011;66498;48.564;19.272;2023-11-21T00:34:17;12.07;;;7.18;;
77430;SDS011;66498;48.564;19.272;2023-11-21T00:36:42;8.63;;;4.70;;
77430;SDS011;66498;48.564;19.272;2023-11-21T00:39:08;7.15;;;4.00;;
77430;SDS011;66498;48.564;19.272;2023-11-21T00:41:33;10.60;;;5.60;;
77430;SDS011;66498;48.564;19.272;2023-11-21T00:44:01;6.20;;;3.65;;
77430;SDS011;66498;48.564;19.272;2023-11-21T00:46:27;5.50;;;3.53;;
77430;SDS011;66498;48.564;19.272;2023-11-21T00:48:54;5.38;;;3.47;;
77430;SDS011;66498;48.564;19.272;2023-11-21T00:51:19;7.05;;;3.55;;
77430;SDS011;66498;48.564;19.272;2023-11-21T00:53:45;4.30;;;3.22;;
77430;SDS011;66498;48.564;19.272;2023-11-21T00:56:11;6.25;;;3.80;;
77430;SDS011;66498;48.564;19.272;2023-11-21T00:58:38;6.38;;;3.90;;
77430;SDS011;66498;48.564;19.272;2023-11-21T01:01:04;6.53;;;4.68;;
77430;SDS011;66498;48.564;19.272;2023-11-21T01:03:29;8.82;;;6.47;;
77430;SDS011;66498;48.564;19.272;2023-11-21T01:05:55;12.30;;;8.75;;
77430;SDS011;66498;48.564;19.272;2023-11-21T01:08:20;12.52;;;9.40;;
77430;SDS011;66498;48.564;19.272;2023-11-21T01:10:46;10.77;;;8.20;;
77430;SDS011;66498;48.564;19.272;2023-11-21T01:13:13;11.98;;;8.82;;
77430;SDS011;66498;48.564;19.272;2023-11-21T01:15:40;7.53;;;5.40;;
77430;SDS011;66498;48.564;19.272;2023-11-21T01:18:07;9.38;;;5.95;;
77430;SDS011;66498;48.564;19.272;2023-11-21T01:20:33;10.13;;;7.72;;
77430;SDS011;66498;48.564;19.272;2023-11-21T01:22:59;9.57;;;8.23;;
77430;SDS011;66498;48.564;19.272;2023-11-21T01:25:25;15.27;;;10.88;;
77430;SDS011;66498;48.564;19.272;2023-11-21T01:27:51;16.20;;;12.00;;
77430;SDS011;66498;48.564;19.272;2023-11-21T01:30:17;16.77;;;12.20;;
77430;SDS011;66498;48.564;19.272;2023-11-21T01:32:43;13.48;;;10.80;;
77430;SDS011;66498;48.564;19.272;2023-11-21T01:35:09;14.57;;;10.93;;
77430;SDS011;66498;48.564;19.272;2023-11-21T01:37:35;14.95;;;11.57;;
77430;SDS011;66498;48.564;19.272;2023-11-21T01:40:01;12.77;;;9.30;;
77430;SDS011;66498;48.564;19.272;2023-11-21T01:42:27;11.27;;;8.32;;
77430;SDS011;66498;48.564;19.272;2023-11-21T01:44:54;9.77;;;7.07;;
77430;SDS011;66498;48.564;19.272;2023-11-21T01:47:23;8.15;;;5.28;;
77430;SDS011;66498;48.564;19.272;2023-11-21T01:49:49;7.00;;;4.43;;
77430;SDS011;66498;48.564;19.272;2023-11-21T01:52:14;5.78;;;4.35;;
77430;SDS011;66498;48.564;19.272;2023-11-21T01:54:40;6.50;;;4.40;;
77430;SDS011;66498;48.564;19.272;2023-11-21T01:57:07;7.80;;;4.47;;
77430;SDS011;66498;48.564;19.272;2023-11-21T01:59:36;6.47;;;3.88;;
77430;SDS011;66498;48.564;19.272;2023-11-21T02:02:03;6.68;;;4.47;;
77430;SDS011;66498;48.564;19.272;2023-11-21T02:04:31;7.00;;;4.65;;
77430;SDS011;66498;48.564;19.272;2023-11-21T02:07:00;8.43;;;4.43;;
77430;SDS011;66498;48.564;19.272;2023-11-21T02:09:26;6.28;;;5.28;;
77430;SDS011;66498;48.564;19.272;2023-11-21T02:11:53;9.05;;;4.65;;
77430;SDS011;66498;48.564;19.272;2023-11-21T02:14:19;8.32;;;5.32;;
77430;SDS011;66498;48.564;19.272;2023-11-21T02:16:47;7.25;;;5.20;;
77430;SDS011;66498;48.564;19.272;2023-11-21T02:19:20;7.45;;;5.50;;
77430;SDS011;66498;48.564;19.272;2023-11-21T02:21:57;7.78;;;5.40;;
77430;SDS011;66498;48.564;19.272;2023-11-21T02:24:28;8.13;;;5.60;;
77430;SDS011;66498;48.564;19.272;2023-11-21T02:26:53;9.57;;;6.00;;
77430;SDS011;66498;48.564;19.272;2023-11-21T02:29:20;11.02;;;6.30;;
77430;SDS011;66498;48.564;19.272;2023-11-21T02:31:55;8.73;;;6.22;;
77430;SDS011;66498;48.564;19.272;2023-11-21T02:34:21;7.78;;;5.75;;
77430;SDS011;66498;48.564;19.272;2023-11-21T02:36:47;12.25;;;8.20;;
77430;SDS011;66498;48.564;19.272;2023-11-21T02:39:16;17.23;;;10.65;;
77430;SDS011;66498;48.564;19.272;2023-11-21T02:41:42;9.73;;;7.35;;
77430;SDS011;66498;48.564;19.272;2023-11-21T02:44:08;7.20;;;5.63;;
77430;SDS011;66498;48.564;19.272;2023-11-21T02:46:35;11.27;;;7.45;;
77430;SDS011;66498;48.564;19.272;2023-11-21T02:49:05;9.35;;;6.45;;
77430;SDS011;66498;48.564;19.272;2023-11-21T02:51:35;9.07;;;6.78;;
77430;SDS011;66498;48.564;19.272;2023-11-21T02:54:01;7.70;;;5.40;;
77430;SDS011;66498;48.564;19.272;2023-11-21T02:56:30;8.05;;;4.90;;
77430;SDS011;66498;48.564;19.272;2023-11-21T02:58:56;7.25;;;5.05;;
77430;SDS011;66498;48.564;19.272;2023-11-21T03:01:22;6.80;;;5.20;;
77430;SDS011;66498;48.564;19.272;2023-11-21T03:03:49;8.10;;;5.60;;
77430;SDS011;66498;48.564;19.272;2023-11-21T03:06:16;8.35;;;5.47;;
77430;SDS011;66498;48.564;19.272;2023-11-21T03:08:45;8.48;;;6.38;;
77430;SDS011;66498;48.564;19.272;2023-11-21T03:11:11;11.52;;;8.45;;
77430;SDS011;66498;48.564;19.272;2023-11-21T03:13:38;9.20;;;6.38;;
77430;SDS011;66498;48.564;19.272;2023-11-21T03:16:06;7.10;;;5.68;;
77430;SDS011;66498;48.564;19.272;2023-11-21T03:18:33;7.90;;;5.85;;
77430;SDS011;66498;48.564;19.272;2023-11-21T03:20:59;7.63;;;5.40;;
77430;SDS011;66498;48.564;19.272;2023-11-21T03:23:24;9.57;;;6.40;;
77430;SDS011;66498;48.564;19.272;2023-11-21T03:25:49;10.38;;;6.47;;
77430;SDS011;66498;48.564;19.272;2023-11-21T03:28:15;8.63;;;7.07;;
77430;SDS011;66498;48.564;19.272;2023-11-21T03:30:40;9.68;;;7.90;;
77430;SDS011;66498;48.564;19.272;2023-11-21T03:33:06;8.38;;;7.20;;
77430;SDS011;66498;48.564;19.272;2023-11-21T03:35:32;8.60;;;6.50;;
77430;SDS011;66498;48.564;19.272;2023-11-21T03:37:58;11.60;;;6.80;;
77430;SDS011;66498;48.564;19.272;2023-11-21T03:40:23;8.35;;;6.10;;
77430;SDS011;66498;48.564;19.272;2023-11-21T03:42:49;7.95;;;6.80;;
77430;SDS011;66498;48.564;19.272;2023-11-21T03:45:15;9.25;;;6.53;;
77430;SDS011;66498;48.564;19.272;2023-11-21T03:47:42;7.75;;;6.55;;
77430;SDS011;66498;48.564;19.272;2023-11-21T03:50:07;10.82;;;7.60;;
77430;SDS011;66498;48.564;19.272;2023-11-21T03:52:34;10.25;;;6.13;;
77430;SDS011;66498;48.564;19.272;2023-11-21T03:55:00;8.68;;;6.13;;
77430;SDS011;66498;48.564;19.272;2023-11-21T03:57:30;8.50;;;6.20;;
77430;SDS011;66498;48.564;19.272;2023-11-21T03:59:55;7.75;;;6.72;;
77430;SDS011;66498;48.564;19.272;2023-11-21T04:02:20;9.27;;;7.05;;
77430;SDS011;66498;48.564;19.272;2023-11-21T04:04:46;8.73;;;6.60;;
77430;SDS011;66498;48.564;19.272;2023-11-21T04:07:12;9.48;;;7.35;;
77430;SDS011;66498;48.564;19.272;2023-11-21T04:09:38;11.23;;;7.38;;
77430;SDS011;66498;48.564;19.272;2023-11-21T04:12:04;8.65;;;6.68;;
77430;SDS011;66498;48.564;19.272;2023-11-21T04:14:30;9.75;;;7.22;;
77430;SDS011;66498;48.564;19.272;2023-11-21T04:16:56;11.73;;;7.88;;
77430;SDS011;66498;48.564;19.272;2023-11-21T04:19:22;9.75;;;8.45;;
77430;SDS011;66498;48.564;19.272;2023-11-21T04:21:48;10.20;;;7.88;;
77430;SDS011;66498;48.564;19.272;2023-11-21T04:24:13;12.45;;;8.15;;
77430;SDS011;66498;48.564;19.272;2023-11-21T04:26:39;9.05;;;7.80;;
77430;SDS011;66498;48.564;19.272;2023-11-21T04:29:04;9.55;;;7.30;;
77430;SDS011;66498;48.564;19.272;2023-11-21T04:31:30;10.02;;;7.18;;
77430;SDS011;66498;48.564;19.272;2023-11-21T04:33:56;10.60;;;6.30;;
77430;SDS011;66498;48.564;19.272;2023-11-21T04:36:21;10.48;;;6.68;;
77430;SDS011;66498;48.564;19.272;2023-11-21T04:38:47;9.38;;;6.78;;
77430;SDS011;66498;48.564;19.272;2023-11-21T04:41:12;12.10;;;6.93;;
77430;SDS011;66498;48.564;19.272;2023-11-21T04:43:38;8.38;;;7.10;;
77430;SDS011;66498;48.564;19.272;2023-11-21T04:46:04;10.65;;;7.47;;
77430;SDS011;66498;48.564;19.272;2023-11-21T04:48:29;11.30;;;7.85;;
77430;SDS011;66498;48.564;19.272;2023-11-21T04:50:55;11.95;;;8.57;;
77430;SDS011;66498;48.564;19.272;2023-11-21T04:53:21;10.80;;;7.82;;
77430;SDS011;66498;48.564;19.272;2023-11-21T04:55:46;10.00;;;7.50;;
77430;SDS011;66498;48.564;19.272;2023-11-21T04:58:13;9.10;;;7.15;;
77430;SDS011;66498;48.564;19.272;2023-11-21T05:00:39;10.07;;;7.63;;
77430;SDS011;66498;48.564;19.272;2023-11-21T05:03:04;11.02;;;7.63;;
77430;SDS011;66498;48.564;19.272;2023-11-21T05:05:32;9.95;;;8.05;;
77430;SDS011;66498;48.564;19.272;2023-11-21T05:07:59;10.48;;;7.63;;
77430;SDS011;66498;48.564;19.272;2023-11-21T05:10:26;11.45;;;8.48;;
77430;SDS011;66498;48.564;19.272;2023-11-21T05:12:51;10.98;;;7.93;;
77430;SDS011;66498;48.564;19.272;2023-11-21T05:15:17;11.52;;;8.10;;
77430;SDS011;66498;48.564;19.272;2023-11-21T05:17:42;11.93;;;8.63;;
77430;SDS011;66498;48.564;19.272;2023-11-21T05:20:13;10.88;;;8.38;;
77430;SDS011;66498;48.564;19.272;2023-11-21T05:22:42;17.45;;;13.75;;
77430;SDS011;66498;48.564;19.272;2023-11-21T05:25:08;17.00;;;14.48;;
77430;SDS011;66498;48.564;19.272;2023-11-21T05:27:35;17.65;;;14.23;;
77430;SDS011;66498;48.564;19.272;2023-11-21T05:30:04;14.05;;;9.70;;
77430;SDS011;66498;48.564;19.272;2023-11-21T05:32:31;15.43;;;11.45;;
77430;SDS011;66498;48.564;19.272;2023-11-21T05:34:59;11.65;;;9.68;;
77430;SDS011;66498;48.564;19.272;2023-11-21T05:37:26;10.43;;;8.15;;
77430;SDS011;66498;48.564;19.272;2023-11-21T05:39:52;10.25;;;7.72;;
77430;SDS011;66498;48.564;19.272;2023-11-21T05:42:18;13.02;;;9.07;;
77430;SDS011;66498;48.564;19.272;2023-11-21T05:44:44;14.50;;;8.45;;
77430;SDS011;66498;48.564;19.272;2023-11-21T05:47:10;12.18;;;9.30;;
77430;SDS011;66498;48.564;19.272;2023-11-21T05:49:35;13.25;;;10.27;;
77430;SDS011;66498;48.564;19.272;2023-11-21T05:52:02;13.18;;;9.90;;
77430;SDS011;66498;48.564;19.272;2023-11-21T05:54:27;12.43;;;8.40;;
77430;SDS011;66498;48.564;19.272;2023-11-21T05:56:54;10.55;;;8.35;;
77430;SDS011;66498;48.564;19.272;2023-11-21T05:59:19;11.93;;;8.38;;
77430;SDS011;66498;48.564;19.272;2023-11-21T06:01:45;18.52;;;13.43;;
77430;SDS011;66498;48.564;19.272;2023-11-21T06:04:11;22.85;;;15.48;;
77430;SDS011;66498;48.564;19.272;2023-11-21T06:06:37;26.95;;;19.45;;
77430;SDS011;66498;48.564;19.272;2023-11-21T06:09:04;24.13;;;16.63;;
77430;SDS011;66498;48.564;19.272;2023-11-21T06:11:31;26.63;;;16.52;;
77430;SDS011;66498;48.564;19.272;2023-11-21T06:13:56;24.33;;;15.98;;
77430;SDS011;66498;48.564;19.272;2023-11-21T06:16:22;24.35;;;15.75;;
77430;SDS011;66498;48.564;19.272;2023-11-21T06:18:48;22.10;;;15.20;;
77430;SDS011;66498;48.564;19.272;2023-11-21T06:21:13;20.30;;;14.70;;
77430;SDS011;66498;48.564;19.272;2023-11-21T06:23:39;20.38;;;13.60;;
77430;SDS011;66498;48.564;19.272;2023-11-21T06:26:04;27.27;;;15.65;;
77430;SDS011;66498;48.564;19.272;2023-11-21T06:28:31;41.33;;;24.10;;
77430;SDS011;66498;48.564;19.272;2023-11-21T06:30:57;31.60;;;18.48;;
77430;SDS011;66498;48.564;19.272;2023-11-21T06:33:30;19.83;;;13.63;;
77430;SDS011;66498;48.564;19.272;2023-11-21T06:35:56;18.65;;;13.88;;
77430;SDS011;66498;48.564;19.272;2023-11-21T06:38:22;23.75;;;17.10;;
77430;SDS011;66498;48.564;19.272;2023-11-21T06:40:47;29.20;;;19.25;;
77430;SDS011;66498;48.564;19.272;2023-11-21T06:43:13;36.20;;;26.83;;
77430;SDS011;66498;48.564;19.272;2023-11-21T06:45:39;46.70;;;37.38;;
77430;SDS011;66498;48.564;19.272;2023-11-21T06:48:05;50.47;;;39.10;;
77430;SDS011;66498;48.564;19.272;2023-11-21T06:50:30;42.53;;;33.42;;
77430;SDS011;66498;48.564;19.272;2023-11-21T06:52:56;38.60;;;31.42;;
77430;SDS011;66498;48.564;19.272;2023-11-21T06:55:21;44.15;;;33.10;;
77430;SDS011;66498;48.564;19.272;2023-11-21T06:57:47;54.30;;;35.55;;
77430;SDS011;66498;48.564;19.272;2023-11-21T07:00:13;52.42;;;34.35;;
77430;SDS011;66498;48.564;19.272;2023-11-21T07:02:42;45.13;;;29.95;;
77430;SDS011;66498;48.564;19.272;2023-11-21T07:05:09;42.03;;;26.35;;
77430;SDS011;66498;48.564;19.272;2023-11-21T07:07:34;37.20;;;22.95;;
77430;SDS011;66498;48.564;19.272;2023-11-21T07:10:02;36.05;;;22.63;;
77430;SDS011;66498;48.564;19.272;2023-11-21T07:12:31;51.50;;;32.72;;
77430;SDS011;66498;48.564;19.272;2023-11-21T07:14:57;41.92;;;29.10;;
77430;SDS011;66498;48.564;19.272;2023-11-21T07:17:23;35.92;;;23.85;;
77430;SDS011;66498;48.564;19.272;2023-11-21T07:19:49;31.08;;;23.20;;
77430;SDS011;66498;48.564;19.272;2023-11-21T07:22:15;30.70;;;21.60;;
77430;SDS011;66498;48.564;19.272;2023-11-21T07:24:49;30.13;;;19.70;;
77430;SDS011;66498;48.564;19.272;2023-11-21T07:27:16;26.08;;;17.85;;
77430;SDS011;66498;48.564;19.272;2023-11-21T07:29:42;32.28;;;22.50;;
77430;SDS011;66498;48.564;19.272;2023-11-21T07:32:07;26.55;;;17.52;;
77430;SDS011;66498;48.564;19.272;2023-11-21T07:34:34;24.42;;;17.67;;
77430;SDS011;66498;48.564;19.272;2023-11-21T07:37:01;28.13;;;18.77;;
77430;SDS011;66498;48.564;19.272;2023-11-21T07:39:26;35.55;;;26.27;;
77430;SDS011;66498;48.564;19.272;2023-11-21T07:41:52;40.05;;;25.85;;
77430;SDS011;66498;48.564;19.272;2023-11-21T07:44:18;35.15;;;24.90;;
77430;SDS011;66498;48.564;19.272;2023-11-21T07:46:44;34.15;;;23.20;;
77430;SDS011;66498;48.564;19.272;2023-11-21T07:49:11;37.88;;;26.45;;
77430;SDS011;66498;48.564;19.272;2023-11-21T07:51:37;32.00;;;22.67;;
77430;SDS011;66498;48.564;19.272;2023-11-21T07:54:02;36.25;;;28.00;;
77430;SDS011;66498;48.564;19.272;2023-11-21T07:56:28;30.45;;;21.60;;
77430;SDS011;66498;48.564;19.272;2023-11-21T07:58:53;31.15;;;22.20;;
77430;SDS011;66498;48.564;19.272;2023-11-21T08:01:19;28.92;;;22.17;;
77430;SDS011;66498;48.564;19.272;2023-11-21T08:03:45;33.20;;;24.40;;
77430;SDS011;66498;48.564;19.272;2023-11-21T08:06:10;34.65;;;24.50;;
77430;SDS011;66498;48.564;19.272;2023-11-21T08:08:37;50.53;;;36.28;;
77430;SDS011;66498;48.564;19.272;2023-11-21T08:11:02;53.22;;;38.38;;
77430;SDS011;66498;48.564;19.272;2023-11-21T08:13:28;24.17;;;18.45;;
77430;SDS011;66498;48.564;19.272;2023-11-21T08:15:57;19.38;;;14.32;;
77430;SDS011;66498;48.564;19.272;2023-11-21T08:18:28;20.98;;;13.75;;
77430;SDS011;66498;48.564;19.272;2023-11-21T08:20:57;20.23;;;15.55;;
77430;SDS011;66498;48.564;19.272;2023-11-21T08:23:23;24.52;;;16.83;;
77430;SDS011;66498;48.564;19.272;2023-11-21T08:25:52;23.02;;;16.67;;
77430;SDS011;66498;48.564;19.272;2023-11-21T08:28:20;31.85;;;22.95;;
77430;SDS011;66498;48.564;19.272;2023-11-21T08:30:48;37.85;;;27.35;;
77430;SDS011;66498;48.564;19.272;2023-11-21T08:33:14;47.95;;;33.40;;
77430;SDS011;66498;48.564;19.272;2023-11-21T08:35:39;57.75;;;37.35;;
77430;SDS011;66498;48.564;19.272;2023-11-21T08:38:05;49.38;;;35.00;;
77430;SDS011;66498;48.564;19.272;2023-11-21T08:40:30;49.75;;;34.45;;
77430;SDS011;66498;48.564;19.272;2023-11-21T08:42:56;47.55;;;33.00;;
77430;SDS011;66498;48.564;19.272;2023-11-21T08:45:23;48.90;;;36.17;;
77430;SDS011;66498;48.564;19.272;2023-11-21T08:47:51;43.60;;;31.92;;
77430;SDS011;66498;48.564;19.272;2023-11-21T08:50:16;38.67;;;27.17;;
77430;SDS011;66498;48.564;19.272;2023-11-21T08:52:43;41.08;;;29.25;;
77430;SDS011;66498;48.564;19.272;2023-11-21T08:55:10;38.55;;;28.48;;
77430;SDS011;66498;48.564;19.272;2023-11-21T08:57:38;42.38;;;29.90;;
77430;SDS011;66498;48.564;19.272;2023-11-21T09:00:06;45.08;;;31.83;;
77430;SDS011;66498;48.564;19.272;2023-11-21T09:02:42;37.25;;;25.33;;
77430;SDS011;66498;48.564;19.272;2023-11-21T09:05:09;33.97;;;24.10;;
77430;SDS011;66498;48.564;19.272;2023-11-21T09:07:39;35.75;;;25.88;;
77430;SDS011;66498;48.564;19.272;2023-11-21T09:10:06;36.55;;;26.83;;
77430;SDS011;66498;48.564;19.272;2023-11-21T09:12:36;35.03;;;26.23;;
77430;SDS011;66498;48.564;19.272;2023-11-21T09:15:05;28.48;;;22.48;;
77430;SDS011;66498;48.564;19.272;2023-11-21T09:17:32;34.35;;;25.75;;
77430;SDS011;66498;48.564;19.272;2023-11-21T09:20:02;33.70;;;25.33;;
77430;SDS011;66498;48.564;19.272;2023-11-21T09:22:31;38.47;;;28.55;;
77430;SDS011;66498;48.564;19.272;2023-11-21T09:24:57;31.13;;;23.73;;
77430;SDS011;66498;48.564;19.272;2023-11-21T09:27:23;32.78;;;26.15;;
77430;SDS011;66498;48.564;19.272;2023-11-21T09:29:50;30.05;;;23.73;;
77430;SDS011;66498;48.564;19.272;2023-11-21T09:32:17;29.30;;;21.98;;
77430;SDS011;66498;48.564;19.272;2023-11-21T09:34:43;26.42;;;22.23;;
77430;SDS011;66498;48.564;19.272;2023-11-21T09:37:09;22.50;;;17.75;;
77430;SDS011;66498;48.564;19.272;2023-11-21T09:39:35;46.95;;;33.08;;
77430;SDS011;66498;48.564;19.272;2023-11-21T09:42:10;44.70;;;29.60;;
77430;SDS011;66498;48.564;19.272;2023-11-21T09:47:26;110.60;;;55.50;;
77430;SDS011;66498;48.564;19.272;2023-11-21T09:49:54;51.50;;;32.13;;
77430;SDS011;66498;48.564;19.272;2023-11-21T09:52:25;53.70;;;32.85;;
77430;SDS011;66498;48.564;19.272;2023-11-21T09:54:55;28.30;;;21.58;;
77430;SDS011;66498;48.564;19.272;2023-11-21T09:57:24;30.45;;;24.25;;
77430;SDS011;66498;48.564;19.272;2023-11-21T09:59:51;53.70;;;42.92;;
77430;SDS011;66498;48.564;19.272;2023-11-21T10:02:24;21.92;;;16.80;;
77430;SDS011;66498;48.564;19.272;2023-11-21T10:04:53;23.73;;;17.60;;
77430;SDS011;66498;48.564;19.272;2023-11-21T10:07:20;32.03;;;26.60;;
77430;SDS011;66498;48.564;19.272;2023-11-21T10:09:46;30.17;;;25.60;;
77430;SDS011;66498;48.564;19.272;2023-11-21T10:12:14;21.10;;;16.67;;
77430;SDS011;66498;48.564;19.272;2023-11-21T10:14:41;20.15;;;15.10;;
77430;SDS011;66498;48.564;19.272;2023-11-21T10:17:10;20.08;;;15.18;;
77430;SDS011;66498;48.564;19.272;2023-11-21T10:19:38;19.40;;;15.45;;
77430;SDS011;66498;48.564;19.272;2023-11-21T10:22:04;19.73;;;15.23;;
77430;SDS011;66498;48.564;19.272;2023-11-21T10:24:32;19.77;;;16.02;;
77430;SDS011;66498;48.564;19.272;2023-11-21T10:26:59;21.60;;;16.73;;
77430;SDS011;66498;48.564;19.272;2023-11-21T10:29:29;23.50;;;15.50;;
77430;SDS011;66498;48.564;19.272;2023-11-21T10:31:55;20.33;;;16.33;;
77430;SDS011;66498;48.564;19.272;2023-11-21T10:34:23;19.38;;;16.38;;
77430;SDS011;66498;48.564;19.272;2023-11-21T10:36:49;18.50;;;13.43;;
77430;SDS011;66498;48.564;19.272;2023-11-21T10:39:18;19.88;;;15.10;;
77430;SDS011;66498;48.564;19.272;2023-11-21T10:41:46;19.00;;;14.40;;
77430;SDS011;66498;48.564;19.272;2023-11-21T10:44:18;19.33;;;14.55;;
77430;SDS011;66498;48.564;19.272;2023-11-21T10:46:49;19.30;;;15.20;;
77430;SDS011;66498;48.564;19.272;2023-11-21T10:49:21;18.73;;;15.20;;
77430;SDS011;66498;48.564;19.272;2023-11-21T10:51:55;19.50;;;15.25;;
77430;SDS011;66498;48.564;19.272;2023-11-21T10:54:21;20.45;;;15.82;;
77430;SDS011;66498;48.564;19.272;2023-11-21T10:57:00;20.40;;;16.05;;
77430;SDS011;66498;48.564;19.272;2023-11-21T10:59:28;20.52;;;16.05;;
77430;SDS011;66498;48.564;19.272;2023-11-21T11:01:57;20.67;;;16.92;;
77430;SDS011;66498;48.564;19.272;2023-11-21T11:04:24;24.08;;;17.40;;
77430;SDS011;66498;48.564;19.272;2023-11-21T11:06:56;23.15;;;18.23;;
77430;SDS011;66498;48.564;19.272;2023-11-21T11:09:23;24.30;;;19.38;;
77430;SDS011;66498;48.564;19.272;2023-11-21T11:11:49;25.00;;;21.00;;
77430;SDS011;66498;48.564;19.272;2023-11-21T11:14:16;27.38;;;21.45;;
77430;SDS011;66498;48.564;19.272;2023-11-21T11:16:44;28.42;;;21.20;;
77430;SDS011;66498;48.564;19.272;2023-11-21T11:19:10;31.77;;;22.23;;
77430;SDS011;66498;48.564;19.272;2023-11-21T11:24:50;25.63;;;20.05;;
77430;SDS011;66498;48.564;19.272;2023-11-21T11:27:46;24.43;;;19.63;;
77430;SDS011;66498;48.564;19.272;2023-11-21T11:33:31;29.88;;;20.60;;
77430;SDS011;66498;48.564;19.272;2023-11-21T11:38:50;28.23;;;21.40;;
77430;SDS011;66498;48.564;19.272;2023-11-21T11:41:27;25.23;;;19.67;;
77430;SDS011;66498;48.564;19.272;2023-11-21T11:43:57;24.25;;;18.63;;
77430;SDS011;66498;48.564;19.272;2023-11-21T11:49:28;21.35;;;15.05;;
77430;SDS011;66498;48.564;19.272;2023-11-21T11:54:58;11.75;;;8.77;;
77430;SDS011;66498;48.564;19.272;2023-11-21T11:57:24;12.13;;;9.30;;
77430;SDS011;66498;48.564;19.272;2023-11-21T12:00:33;13.05;;;9.90;;
77430;SDS011;66498;48.564;19.272;2023-11-21T12:03:01;13.13;;;9.77;;
77430;SDS011;66498;48.564;19.272;2023-11-21T12:05:33;14.32;;;10.57;;
77430;SDS011;66498;48.564;19.272;2023-11-21T12:08:04;16.73;;;12.35;;
77430;SDS011;66498;48.564;19.272;2023-11-21T12:10:35;17.45;;;13.15;;
77430;SDS011;66498;48.564;19.272;2023-11-21T12:13:06;19.42;;;14.73;;
77430;SDS011;66498;48.564;19.272;2023-11-21T12:15:36;17.83;;;14.73;;
77430;SDS011;66498;48.564;19.272;2023-11-21T12:18:03;19.15;;;15.20;;
77430;SDS011;66498;48.564;19.272;2023-11-21T12:20:30;22.95;;;16.55;;
77430;SDS011;66498;48.564;19.272;2023-11-21T12:22:59;19.08;;;13.98;;
77430;SDS011;66498;48.564;19.272;2023-11-21T12:25:29;16.15;;;12.13;;
77430;SDS011;66498;48.564;19.272;2023-11-21T12:27:59;15.93;;;12.30;;
77430;SDS011;66498;48.564;19.272;2023-11-21T12:30:28;13.68;;;11.63;;
77430;SDS011;66498;48.564;19.272;2023-11-21T12:32:56;14.30;;;9.57;;
77430;SDS011;66498;48.564;19.272;2023-11-21T12:35:29;13.57;;;10.13;;
77430;SDS011;66498;48.564;19.272;2023-11-21T12:37:58;18.30;;;11.52;;
77430;SDS011;66498;48.564;19.272;2023-11-21T12:40:25;9.98;;;7.88;;
77430;SDS011;66498;48.564;19.272;2023-11-21T12:42:52;10.45;;;6.90;;
77430;SDS011;66498;48.564;19.272;2023-11-21T12:45:20;7.38;;;5.03;;
77430;SDS011;66498;48.564;19.272;2023-11-21T12:47:59;9.30;;;5.80;;
77430;SDS011;66498;48.564;19.272;2023-11-21T12:50:29;6.78;;;4.68;;
77430;SDS011;66498;48.564;19.272;2023-11-21T12:53:00;8.77;;;5.90;;
77430;SDS011;66498;48.564;19.272;2023-11-21T12:55:31;7.15;;;5.20;;
77430;SDS011;66498;48.564;19.272;2023-11-21T12:58:07;8.57;;;5.75;;
77430;SDS011;66498;48.564;19.272;2023-11-21T13:03:03;10.90;;;7.03;;
77430;SDS011;66498;48.564;19.272;2023-11-21T13:05:36;9.80;;;7.00;;
77430;SDS011;66498;48.564;19.272;2023-11-21T13:08:07;10.52;;;7.13;;
77430;SDS011;66498;48.564;19.272;2023-11-21T13:10:35;9.88;;;7.07;;
77430;SDS011;66498;48.564;19.272;2023-11-21T13:13:02;10.65;;;7.40;;
77430;SDS011;66498;48.564;19.272;2023-11-21T13:15:30;8.68;;;7.25;;
77430;SDS011;66498;48.564;19.272;2023-11-21T13:17:57;27.67;;;8.63;;
77430;SDS011;66498;48.564;19.272;2023-11-21T13:20:24;11.82;;;6.82;;
77430;SDS011;66498;48.564;19.272;2023-11-21T13:22:54;7.20;;;5.90;;
77430;SDS011;66498;48.564;19.272;2023-11-21T13:25:28;10.93;;;7.97;;
77430;SDS011;66498;48.564;19.272;2023-11-21T13:27:57;14.32;;;10.70;;
77430;SDS011;66498;48.564;19.272;2023-11-21T13:30:26;15.07;;;12.05;;
77430;SDS011;66498;48.564;19.272;2023-11-21T13:33:01;13.40;;;10.30;;
77430;SDS011;66498;48.564;19.272;2023-11-21T13:35:36;11.75;;;9.75;;
77430;SDS011;66498;48.564;19.272;2023-11-21T13:38:07;9.15;;;6.82;;
77430;SDS011;66498;48.564;19.272;2023-11-21T13:40:35;8.50;;;6.60;;
77430;SDS011;66498;48.564;19.272;2023-11-21T13:43:23;8.45;;;5.13;;
77430;SDS011;66498;48.564;19.272;2023-11-21T13:45:50;6.05;;;4.60;;
77430;SDS011;66498;48.564;19.272;2023-11-21T13:48:25;6.93;;;5.32;;
77430;SDS011;66498;48.564;19.272;2023-11-21T13:50:57;9.73;;;8.40;;
77430;SDS011;66498;48.564;19.272;2023-11-21T13:53:31;11.90;;;10.10;;
77430;SDS011;66498;48.564;19.272;2023-11-21T13:55:58;12.90;;;10.45;;
77430;SDS011;66498;48.564;19.272;2023-11-21T13:58:24;13.15;;;9.68;;
77430;SDS011;66498;48.564;19.272;2023-11-21T14:00:53;10.82;;;8.38;;
77430;SDS011;66498;48.564;19.272;2023-11-21T14:03:25;9.90;;;6.80;;
77430;SDS011;66498;48.564;19.272;2023-11-21T14:06:03;9.25;;;7.68;;
77430;SDS011;66498;48.564;19.272;2023-11-21T14:08:34;9.38;;;7.60;;
77430;SDS011;66498;48.564;19.272;2023-11-21T14:10:59;8.35;;;6.82;;
77430;SDS011;66498;48.564;19.272;2023-11-21T14:13:25;8.98;;;6.13;;
77430;SDS011;66498;48.564;19.272;2023-11-21T14:15:52;6.88;;;5.25;;
77430;SDS011;66498;48.564;19.272;2023-11-21T14:18:25;8.15;;;5.90;;
77430;SDS011;66498;48.564;19.272;2023-11-21T14:20:56;9.35;;;6.70;;
77430;SDS011;66498;48.564;19.272;2023-11-21T14:23:22;8.82;;;7.20;;
77430;SDS011;66498;48.564;19.272;2023-11-21T14:25:48;11.43;;;7.90;;
77430;SDS011;66498;48.564;19.272;2023-11-21T14:28:15;11.55;;;8.75;;
77430;SDS011;66498;48.564;19.272;2023-11-21T14:30:41;10.70;;;8.75;;
77430;SDS011;66498;48.564;19.272;2023-11-21T14:33:07;11.73;;;8.80;;
77430;SDS011;66498;48.564;19.272;2023-11-21T14:35:34;11.98;;;9.38;;
77430;SDS011;66498;48.564;19.272;2023-11-21T14:38:00;11.27;;;8.55;;
77430;SDS011;66498;48.564;19.272;2023-11-21T14:40:27;12.00;;;9.20;;